createdAt,value
2019-02-07T00:04:36.067Z,21.87
2019-02-07T00:09:38.172Z,20.50
2019-02-07T00:14:40.124Z,20.50
2019-02-07T00:19:42.277Z,24.30
2019-02-07T00:24:44.530Z,18.30
2019-02-07T00:29:46.438Z,18.40
2019-02-07T00:34:48.448Z,17.27
2019-02-07T00:39:50.435Z,22.17
2019-02-07T00:44:52.678Z,18.53
2019-02-07T00:49:55.885Z,20.83
2019-02-07T00:54:57.818Z,17.70
2019-02-07T00:59:59.664Z,17.90
2019-02-07T01:05:01.784Z,16.20
2019-02-07T01:10:05.843Z,19.87
2019-02-07T01:15:09.466Z,16.40
2019-02-07T01:20:12.888Z,16.70
2019-02-07T01:25:17.536Z,16.47
2019-02-07T01:30:20.321Z,15.97
2019-02-07T01:35:22.436Z,16.10
2019-02-07T01:40:24.977Z,15.57
2019-02-07T01:45:26.967Z,14.50
2019-02-07T01:50:30.193Z,14.67
2019-02-07T01:55:32.121Z,15.47
2019-02-07T02:00:34.228Z,12.63
2019-02-07T02:05:36.138Z,14.53
2019-02-07T02:10:39.127Z,15.40
2019-02-07T02:15:41.339Z,11.00
2019-02-07T02:20:43.360Z,11.73
2019-02-07T02:25:45.423Z,12.43
2019-02-07T02:30:47.427Z,11.80
2019-02-07T02:35:50.070Z,11.13
2019-02-07T02:40:52.011Z,13.93
2019-02-07T02:45:54.289Z,11.47
2019-02-07T02:50:57.443Z,15.33
2019-02-07T02:56:01.358Z,12.97
2019-02-07T03:01:26.194Z,15.53
2019-02-07T03:06:48.017Z,14.23
2019-02-07T03:12:14.356Z,13.77
2019-02-07T03:17:35.526Z,12.13
2019-02-07T03:22:56.516Z,13.93
2019-02-07T03:28:18.120Z,11.57
2019-02-07T03:33:36.199Z,15.43
2019-02-07T03:39:00.659Z,11.23
2019-02-07T03:44:22.585Z,9.97
2019-02-07T03:49:50.023Z,13.10
2019-02-07T03:55:02.463Z,10.87
2019-02-07T04:00:18.059Z,13.27
2019-02-07T04:05:39.942Z,11.10
2019-02-07T04:11:12.410Z,10.87
2019-02-07T04:16:23.578Z,11.00
2019-02-07T04:21:40.206Z,12.13
2019-02-07T04:26:58.897Z,11.13
2019-02-07T04:32:18.970Z,12.97
2019-02-07T04:37:38.963Z,11.17
2019-02-07T04:42:50.599Z,9.43
2019-02-07T04:48:02.392Z,12.03
2019-02-07T04:53:32.967Z,9.03
2019-02-07T04:58:53.070Z,9.77
2019-02-07T05:04:10.577Z,10.27
2019-02-07T05:09:30.757Z,8.50
2019-02-07T05:15:10.366Z,8.37
2019-02-07T05:20:39.150Z,8.27
2019-02-07T05:25:59.487Z,6.67
2019-02-07T05:31:17.322Z,5.63
2019-02-07T05:36:44.441Z,7.37
2019-02-07T05:42:04.896Z,6.63
2019-02-07T05:47:26.595Z,8.33
2019-02-07T05:52:52.661Z,6.67
2019-02-07T05:58:17.284Z,7.20
2019-02-07T06:03:33.283Z,6.83
2019-02-07T06:08:57.743Z,7.07
2019-02-07T06:14:18.238Z,7.30
2019-02-07T06:19:30.625Z,8.43
2019-02-07T06:24:55.287Z,7.47
2019-02-07T06:30:13.820Z,7.27
2019-02-07T06:35:27.788Z,9.03
2019-02-07T06:40:55.472Z,8.00
2019-02-07T06:46:05.130Z,8.50
2019-02-07T06:51:38.850Z,7.43
2019-02-07T06:57:18.997Z,7.43
2019-02-07T07:03:05.151Z,8.90
2019-02-07T07:08:26.537Z,8.17
2019-02-07T07:13:51.329Z,7.20
2019-02-07T07:19:29.355Z,12.67
2019-02-07T07:24:51.288Z,10.80
2019-02-07T07:30:01.608Z,10.13
2019-02-07T07:35:32.539Z,7.63
2019-02-07T07:40:54.144Z,9.47
2019-02-07T07:46:12.341Z,7.57
2019-02-07T07:51:40.151Z,9.10
2019-02-07T07:56:51.362Z,7.60
2019-02-07T08:02:18.488Z,8.93
2019-02-07T08:07:40.483Z,11.83
2019-02-07T08:12:55.414Z,9.10
2019-02-07T08:18:13.059Z,9.33
2019-02-07T08:23:25.499Z,7.40
2019-02-07T08:28:35.994Z,8.77
2019-02-07T08:34:00.814Z,6.80
2019-02-07T08:39:23.151Z,7.20
2019-02-07T08:44:49.599Z,8.07
2019-02-07T08:50:36.797Z,8.30
2019-02-07T08:55:57.933Z,8.30
2019-02-07T09:01:37.951Z,9.13
2019-02-07T09:07:11.939Z,7.37
2019-02-07T09:12:39.959Z,9.10
2019-02-07T09:17:52.587Z,8.03
2019-02-07T09:23:05.310Z,9.67
2019-02-07T09:28:14.558Z,9.30
2019-02-07T09:33:35.284Z,8.70
2019-02-07T09:38:56.423Z,9.17
2019-02-07T09:44:24.185Z,9.83
2019-02-07T09:49:34.981Z,11.17
2019-02-07T09:54:52.205Z,8.70
2019-02-07T10:00:12.540Z,11.27
2019-02-07T10:05:40.010Z,9.97
2019-02-07T10:11:00.245Z,10.87
2019-02-07T10:16:25.062Z,16.67
2019-02-07T10:21:50.022Z,10.00
2019-02-07T10:27:14.636Z,20.80
2019-02-07T10:32:35.043Z,8.47
2019-02-07T10:37:50.130Z,8.40
2019-02-07T10:43:11.489Z,7.90
2019-02-07T10:48:27.758Z,8.80
2019-02-07T10:53:50.232Z,8.33
2019-02-07T10:59:11.913Z,9.40
2019-02-07T11:04:33.804Z,8.20
2019-02-07T11:09:58.364Z,9.77
2019-02-07T11:15:08.337Z,9.87
2019-02-07T11:20:38.990Z,9.70
2019-02-07T11:26:16.571Z,11.90
2019-02-07T11:31:30.398Z,9.53
2019-02-07T11:36:54.116Z,9.83
2019-02-07T11:42:10.114Z,11.33
2019-02-07T11:47:31.945Z,11.30
2019-02-07T11:52:42.605Z,16.03
2019-02-07T11:58:01.434Z,10.10
2019-02-07T12:03:29.190Z,10.67
2019-02-07T12:08:49.521Z,12.67
2019-02-07T12:14:07.262Z,13.33
2019-02-07T12:19:27.625Z,11.37
2019-02-07T12:24:49.225Z,11.23
2019-02-07T12:30:23.309Z,11.87
2019-02-07T12:35:43.730Z,12.17
2019-02-07T12:41:08.198Z,13.60
2019-02-07T12:46:38.677Z,15.80
2019-02-07T12:51:59.495Z,14.80
2019-02-07T12:57:19.883Z,18.77
2019-02-07T13:02:39.692Z,18.83
2019-02-07T13:08:11.583Z,17.47
2019-02-07T13:13:21.540Z,17.23
2019-02-07T13:18:30.204Z,16.93
2019-02-07T13:23:59.446Z,20.67
2019-02-07T13:29:20.774Z,16.97
2019-02-07T13:34:34.883Z,18.63
2019-02-07T13:39:58.149Z,18.50
2019-02-07T13:45:19.476Z,18.47
2019-02-07T13:50:39.935Z,18.47
2019-02-07T13:55:54.164Z,19.00
2019-02-07T14:01:34.244Z,17.97
2019-02-07T14:06:54.572Z,20.57
2019-02-07T14:12:10.047Z,20.30
2019-02-07T14:17:26.315Z,20.70
2019-02-07T14:22:37.435Z,20.27
2019-02-07T14:27:58.345Z,20.50
2019-02-07T14:33:23.698Z,22.03
2019-02-07T14:38:50.536Z,18.30
2019-02-07T14:44:13.826Z,19.30
2019-02-07T14:49:15.902Z,20.93
2019-02-07T14:54:17.998Z,22.17
2019-02-07T14:59:21.538Z,20.87
2019-02-07T15:04:23.528Z,22.80
2019-02-07T15:09:26.008Z,21.03
2019-02-07T15:14:28.010Z,21.97
2019-02-07T15:19:30.026Z,20.70
2019-02-07T15:24:31.957Z,20.77
2019-02-07T15:29:34.287Z,26.60
2019-02-07T15:34:36.379Z,22.97
2019-02-07T15:39:38.521Z,21.83
2019-02-07T15:44:40.567Z,24.73
2019-02-07T15:49:43.101Z,20.97
2019-02-07T15:54:45.091Z,17.23
2019-02-07T15:59:51.605Z,19.53
2019-02-07T16:04:54.601Z,21.30
2019-02-07T16:09:56.596Z,19.90
2019-02-07T16:14:58.995Z,19.23
2019-02-07T16:20:01.078Z,18.40
2019-02-07T16:25:05.715Z,23.97
2019-02-07T16:30:11.542Z,18.70
2019-02-07T16:35:15.748Z,19.97
2019-02-07T16:40:18.637Z,21.60
2019-02-07T16:45:21.208Z,21.23
2019-02-07T16:50:23.417Z,19.57
2019-02-07T16:55:25.610Z,18.77
2019-02-07T17:00:41.064Z,19.23
2019-02-07T17:05:43.153Z,19.23
2019-02-07T17:10:45.301Z,19.17
2019-02-07T17:15:48.716Z,22.50
2019-02-07T17:20:51.070Z,20.53
2019-02-07T17:25:52.954Z,24.43
2019-02-07T17:30:55.365Z,23.53
2019-02-07T17:35:57.471Z,22.87
2019-02-07T17:40:59.464Z,22.23
2019-02-07T17:46:01.690Z,23.17
2019-02-07T17:51:04.798Z,22.57
2019-02-07T17:56:07.401Z,21.47
2019-02-07T18:01:09.819Z,24.27
2019-02-07T18:06:12.010Z,22.63
2019-02-07T18:11:13.918Z,23.27
2019-02-07T18:16:15.804Z,22.13
2019-02-07T18:21:17.721Z,23.03
2019-02-07T18:26:19.676Z,22.47
2019-02-07T18:31:21.584Z,26.53
2019-02-07T18:36:23.777Z,24.20
2019-02-07T18:41:26.001Z,27.47
2019-02-07T18:46:29.049Z,26.80
2019-02-07T18:51:31.204Z,23.77
2019-02-07T18:56:33.104Z,25.53
2019-02-07T19:01:35.012Z,23.23
2019-02-07T19:06:36.900Z,28.23
2019-02-07T19:11:38.844Z,25.23
2019-02-07T19:16:41.062Z,26.97
2019-02-07T19:21:43.000Z,24.93
2019-02-07T19:26:44.941Z,29.37
2019-02-07T19:31:46.844Z,30.23
2019-02-07T19:36:48.930Z,29.57
2019-02-07T19:41:50.956Z,25.60
2019-02-07T19:46:52.851Z,26.47
2019-02-07T19:51:54.877Z,26.07
2019-02-07T19:56:56.911Z,27.63
2019-02-07T20:01:58.818Z,30.13
2019-02-07T20:07:00.700Z,29.20
2019-02-07T20:12:03.358Z,28.20
2019-02-07T20:17:06.673Z,25.83
2019-02-07T20:22:19.790Z,25.07
2019-02-07T20:27:13.268Z,27.00
2019-02-07T20:32:15.192Z,29.17
2019-02-07T20:37:17.128Z,28.13
2019-02-07T20:42:19.027Z,27.40
2019-02-07T20:47:21.020Z,25.93
2019-02-07T20:52:27.254Z,24.73
2019-02-07T20:57:26.739Z,26.80
2019-02-07T21:02:28.671Z,27.33
2019-02-07T21:07:30.602Z,27.33
2019-02-07T21:12:32.596Z,27.47
2019-02-07T21:17:34.604Z,24.27
2019-02-07T21:22:36.970Z,28.67
2019-02-07T21:27:38.978Z,26.47
2019-02-07T21:32:41.054Z,27.83
2019-02-07T21:37:43.274Z,27.77
2019-02-07T21:42:45.379Z,26.60
2019-02-07T21:47:47.410Z,27.03
2019-02-07T21:52:49.527Z,25.70
2019-02-07T21:57:51.730Z,28.87
2019-02-07T22:02:54.520Z,29.63
2019-02-07T22:07:56.727Z,27.20
2019-02-07T22:12:58.647Z,27.47
2019-02-07T22:18:01.063Z,27.50
2019-02-07T22:23:03.701Z,33.77
2019-02-07T22:28:06.433Z,31.07
2019-02-07T22:33:08.544Z,27.20
2019-02-07T22:38:10.531Z,29.50
2019-02-07T22:43:12.464Z,33.60
2019-02-07T22:48:14.379Z,29.43
2019-02-07T22:53:16.341Z,33.50
2019-02-07T22:58:37.205Z,31.47
2019-02-07T23:03:44.242Z,25.53
2019-02-07T23:08:47.787Z,28.33
2019-02-07T23:13:49.992Z,29.33
2019-02-07T23:18:52.310Z,26.53
2019-02-07T23:23:54.251Z,25.13
2019-02-07T23:28:56.293Z,26.03
2019-02-07T23:33:58.713Z,27.37
2019-02-07T23:39:00.572Z,26.80
2019-02-07T23:44:04.168Z,25.07
2019-02-07T23:49:07.083Z,30.87
2019-02-07T23:54:09.201Z,25.50
2019-02-07T23:59:11.141Z,30.60
